createdAt,value
2019-03-09T00:01:23.141Z,92.00
2019-03-09T00:03:53.191Z,92.10
2019-03-09T00:06:23.132Z,92.10
2019-03-09T00:08:53.091Z,92.00
2019-03-09T00:11:23.035Z,91.70
2019-03-09T00:13:52.991Z,91.60
2019-03-09T00:16:22.932Z,91.90
2019-03-09T00:18:53.858Z,91.80
2019-03-09T00:21:23.910Z,91.70
2019-03-09T00:24:12.099Z,91.50
2019-03-09T00:26:49.590Z,91.50
2019-03-09T00:29:21.191Z,91.40
2019-03-09T00:31:52.770Z,91.50
2019-03-09T00:34:22.737Z,91.50
2019-03-09T00:36:52.691Z,92.10
2019-03-09T00:39:22.645Z,92.50
2019-03-09T00:41:52.577Z,92.70
2019-03-09T00:44:22.533Z,92.90
2019-03-09T00:46:52.479Z,92.60
2019-03-09T00:49:22.444Z,93.00
2019-03-09T00:51:52.477Z,92.70
2019-03-09T00:54:22.527Z,92.80
2019-03-09T00:56:52.514Z,92.50
2019-03-09T00:59:22.558Z,92.30
2019-03-09T01:01:52.547Z,92.40
2019-03-09T01:04:22.603Z,91.80
2019-03-09T01:06:52.537Z,91.80
2019-03-09T01:09:22.502Z,91.80
2019-03-09T01:11:52.442Z,91.70
2019-03-09T01:14:22.475Z,91.30
2019-03-09T01:16:52.410Z,91.30
2019-03-09T01:19:22.380Z,91.30
2019-03-09T01:21:52.317Z,91.20
2019-03-09T01:24:22.285Z,90.70
2019-03-09T01:26:52.218Z,90.80
2019-03-09T01:29:22.179Z,90.70
2019-03-09T01:31:52.182Z,90.70
2019-03-09T01:34:22.145Z,91.00
2019-03-09T01:36:52.082Z,90.90
2019-03-09T01:39:22.126Z,91.00
2019-03-09T01:41:52.114Z,91.10
2019-03-09T01:44:22.072Z,90.80
2019-03-09T01:46:52.010Z,90.90
2019-03-09T01:49:21.998Z,90.50
2019-03-09T01:51:51.937Z,90.70
2019-03-09T01:54:21.898Z,90.70
2019-03-09T01:56:51.830Z,90.70
2019-03-09T01:59:21.798Z,91.00
2019-03-09T02:01:51.738Z,90.60
2019-03-09T02:04:21.798Z,90.30
2019-03-09T02:06:51.803Z,90.10
2019-03-09T02:09:21.940Z,90.00
2019-03-09T02:11:51.922Z,89.80
2019-03-09T02:14:21.969Z,89.80
2019-03-09T02:16:52.973Z,90.00
2019-03-09T02:19:24.055Z,89.10
2019-03-09T02:21:53.994Z,89.20
2019-03-09T02:24:23.971Z,88.50
2019-03-09T02:26:53.906Z,88.00
2019-03-09T02:29:23.865Z,87.40
2019-03-09T02:31:53.807Z,87.40
2019-03-09T02:34:23.767Z,87.40
2019-03-09T02:36:53.705Z,87.20
2019-03-09T02:39:27.726Z,86.80
2019-03-09T02:41:57.660Z,87.10
2019-03-09T02:44:27.623Z,86.90
2019-03-09T02:46:57.555Z,86.80
2019-03-09T02:49:27.512Z,85.60
2019-03-09T02:51:57.438Z,86.20
2019-03-09T02:54:27.384Z,86.30
2019-03-09T02:56:57.334Z,86.30
2019-03-09T02:59:27.272Z,86.00
2019-03-09T03:02:01.937Z,85.40
2019-03-09T03:04:33.180Z,85.70
2019-03-09T03:07:03.119Z,85.40
2019-03-09T03:09:33.077Z,85.30
2019-03-09T03:12:03.018Z,85.70
2019-03-09T03:14:33.052Z,85.80
2019-03-09T03:17:02.990Z,86.20
2019-03-09T03:19:32.942Z,86.20
2019-03-09T03:22:02.881Z,86.40
2019-03-09T03:24:32.818Z,87.10
2019-03-09T03:27:02.789Z,86.80
2019-03-09T03:29:32.731Z,86.50
2019-03-09T03:32:02.699Z,87.10
2019-03-09T03:34:32.632Z,86.40
2019-03-09T03:37:02.677Z,86.80
2019-03-09T03:39:32.630Z,86.50
2019-03-09T03:42:02.600Z,86.50
2019-03-09T03:44:34.180Z,86.60
2019-03-09T03:47:04.134Z,87.10
2019-03-09T03:49:34.076Z,86.70
2019-03-09T03:52:04.057Z,86.80
2019-03-09T03:54:33.975Z,87.00
2019-03-09T03:57:04.206Z,87.00
2019-03-09T03:59:34.211Z,87.40
2019-03-09T04:02:04.233Z,87.10
2019-03-09T04:04:34.174Z,87.20
2019-03-09T04:07:04.536Z,87.50
2019-03-09T04:09:35.516Z,87.40
2019-03-09T04:12:05.472Z,87.10
2019-03-09T04:14:35.399Z,87.10
2019-03-09T04:17:05.354Z,86.80
2019-03-09T04:19:35.290Z,86.90
2019-03-09T04:22:05.336Z,86.80
2019-03-09T04:24:36.898Z,86.70
2019-03-09T04:27:07.003Z,86.70
2019-03-09T04:29:36.934Z,87.20
2019-03-09T04:32:06.912Z,87.20
2019-03-09T04:34:36.856Z,87.20
2019-03-09T04:37:06.828Z,87.40
2019-03-09T04:39:36.771Z,87.20
2019-03-09T04:42:06.740Z,86.80
2019-03-09T04:44:36.748Z,87.10
2019-03-09T04:47:06.715Z,87.10
2019-03-09T04:49:36.660Z,87.00
2019-03-09T04:52:06.637Z,86.60
2019-03-09T04:54:36.588Z,86.80
2019-03-09T04:57:06.553Z,86.70
2019-03-09T04:59:36.497Z,85.70
2019-03-09T05:02:06.464Z,85.50
2019-03-09T05:04:39.548Z,85.50
2019-03-09T05:07:10.152Z,85.10
2019-03-09T05:10:03.680Z,84.80
2019-03-09T05:12:33.644Z,85.00
2019-03-09T05:15:04.552Z,84.00
2019-03-09T05:17:34.525Z,84.20
2019-03-09T05:20:05.664Z,84.20
2019-03-09T05:22:35.716Z,84.50
2019-03-09T05:25:05.913Z,84.60
2019-03-09T05:27:35.872Z,84.00
2019-03-09T05:30:08.909Z,83.80
2019-03-09T05:32:38.879Z,83.70
2019-03-09T05:35:08.961Z,83.40
2019-03-09T05:37:43.130Z,83.20
2019-03-09T05:40:10.488Z,82.40
2019-03-09T05:42:40.460Z,81.90
2019-03-09T05:45:10.484Z,82.00
2019-03-09T05:47:40.453Z,82.80
2019-03-09T05:50:10.398Z,83.20
2019-03-09T05:52:40.448Z,83.20
2019-03-09T05:55:12.573Z,83.90
2019-03-09T05:57:42.540Z,85.10
2019-03-09T06:00:14.423Z,86.40
2019-03-09T06:02:44.516Z,86.40
2019-03-09T06:05:35.008Z,87.10
2019-03-09T06:08:05.813Z,86.70
2019-03-09T06:10:35.892Z,85.60
2019-03-09T06:13:06.100Z,85.50
2019-03-09T06:15:36.045Z,85.30
2019-03-09T06:18:07.088Z,85.50
2019-03-09T06:20:37.028Z,86.50
2019-03-09T06:23:07.113Z,86.50
2019-03-09T06:25:38.677Z,88.30
2019-03-09T06:28:09.628Z,89.20
2019-03-09T06:30:39.576Z,89.40
2019-03-09T06:33:18.112Z,90.60
2019-03-09T06:35:50.844Z,91.50
2019-03-09T06:38:26.525Z,92.00
2019-03-09T06:41:02.844Z,91.90
2019-03-09T06:43:28.045Z,92.00
2019-03-09T06:45:57.997Z,92.50
2019-03-09T06:48:27.956Z,93.10
2019-03-09T06:50:57.904Z,92.30
2019-03-09T06:53:27.868Z,92.60
2019-03-09T06:55:57.812Z,92.50
2019-03-09T06:58:27.785Z,92.70
2019-03-09T07:00:59.469Z,92.60
2019-03-09T07:03:29.434Z,92.80
2019-03-09T07:05:59.469Z,92.80
2019-03-09T07:08:29.436Z,92.40
2019-03-09T07:10:59.377Z,92.70
2019-03-09T07:13:29.344Z,92.20
2019-03-09T07:15:59.329Z,92.60
2019-03-09T07:18:29.479Z,92.80
2019-03-09T07:20:59.425Z,92.70
2019-03-09T07:23:30.440Z,93.10
2019-03-09T07:26:00.385Z,93.00
2019-03-09T07:28:30.348Z,93.10
2019-03-09T07:31:00.306Z,93.90
2019-03-09T07:33:30.308Z,94.60
2019-03-09T07:36:00.387Z,95.10
2019-03-09T07:38:30.358Z,95.10
2019-03-09T07:41:00.302Z,95.50
2019-03-09T07:43:30.256Z,95.80
2019-03-09T07:46:00.200Z,95.90
2019-03-09T07:48:30.168Z,95.90
2019-03-09T07:51:00.148Z,95.80
2019-03-09T07:53:30.109Z,95.70
2019-03-09T07:56:00.050Z,95.50
2019-03-09T07:58:30.085Z,95.20
2019-03-09T08:01:00.039Z,95.20
2019-03-09T08:03:30.070Z,94.80
2019-03-09T08:06:00.012Z,94.60
2019-03-09T08:08:30.043Z,94.50
2019-03-09T08:11:00.024Z,94.20
2019-03-09T08:13:30.076Z,93.90
2019-03-09T08:16:00.068Z,93.60
2019-03-09T08:18:30.100Z,93.40
2019-03-09T08:21:00.044Z,93.30
2019-03-09T08:23:30.021Z,93.40
2019-03-09T08:25:59.978Z,93.30
2019-03-09T08:28:29.999Z,91.50
2019-03-09T08:30:59.983Z,91.40
2019-03-09T08:33:30.911Z,91.60
2019-03-09T08:36:02.072Z,91.40
2019-03-09T08:38:32.024Z,91.40
2019-03-09T08:41:01.974Z,91.30
2019-03-09T08:43:31.937Z,90.90
2019-03-09T08:46:01.895Z,90.80
2019-03-09T08:48:32.847Z,90.10
2019-03-09T08:51:02.768Z,90.10
2019-03-09T08:53:32.748Z,89.40
2019-03-09T08:56:02.677Z,89.50
2019-03-09T08:58:32.649Z,88.10
2019-03-09T09:01:02.629Z,88.50
2019-03-09T09:03:32.557Z,88.70
2019-03-09T09:06:02.503Z,88.90
2019-03-09T09:08:32.463Z,89.30
2019-03-09T09:11:02.404Z,87.30
2019-03-09T09:13:32.448Z,88.60
2019-03-09T09:16:02.445Z,87.50
2019-03-09T09:18:32.405Z,85.10
2019-03-09T09:21:02.353Z,86.70
2019-03-09T09:23:32.316Z,84.40
2019-03-09T09:26:02.261Z,85.30
2019-03-09T09:28:32.224Z,84.50
2019-03-09T09:31:02.237Z,83.60
2019-03-09T09:33:32.204Z,84.00
2019-03-09T09:36:02.216Z,83.80
2019-03-09T09:38:32.188Z,84.30
2019-03-09T09:41:02.264Z,83.60
2019-03-09T09:43:32.181Z,82.60
2019-03-09T09:46:02.134Z,82.30
2019-03-09T09:48:32.105Z,82.60
2019-03-09T09:51:02.061Z,82.60
2019-03-09T09:53:32.103Z,83.10
2019-03-09T09:56:02.053Z,82.10
2019-03-09T09:58:32.028Z,82.40
2019-03-09T10:01:01.989Z,82.70
2019-03-09T10:03:31.960Z,81.80
2019-03-09T10:06:01.982Z,81.30
2019-03-09T10:08:32.484Z,82.40
2019-03-09T10:11:02.432Z,81.00
2019-03-09T10:13:32.403Z,80.40
2019-03-09T10:16:02.358Z,80.50
2019-03-09T10:18:32.329Z,80.40
2019-03-09T10:21:02.275Z,79.80
2019-03-09T10:23:33.324Z,79.60
2019-03-09T10:26:03.276Z,77.20
2019-03-09T10:28:33.243Z,76.90
2019-03-09T10:31:03.196Z,78.80
2019-03-09T10:33:33.168Z,77.30
2019-03-09T10:36:03.125Z,76.90
2019-03-09T10:38:34.061Z,77.90
2019-03-09T10:41:04.063Z,77.90
2019-03-09T10:43:34.121Z,77.30
2019-03-09T10:46:04.100Z,74.30
2019-03-09T10:48:34.073Z,75.80
2019-03-09T10:51:04.144Z,75.80
2019-03-09T10:53:34.119Z,75.60
2019-03-09T10:56:04.175Z,76.00
2019-03-09T10:58:34.173Z,76.40
2019-03-09T11:01:06.593Z,75.50
2019-03-09T11:03:36.556Z,76.10
2019-03-09T11:06:06.580Z,74.60
2019-03-09T11:08:36.624Z,76.30
2019-03-09T11:11:06.743Z,75.60
2019-03-09T11:13:36.721Z,75.70
2019-03-09T11:16:06.782Z,76.50
2019-03-09T11:18:37.836Z,76.70
2019-03-09T11:21:07.856Z,77.10
2019-03-09T11:23:37.853Z,77.30
2019-03-09T11:26:07.880Z,77.80
2019-03-09T11:28:37.855Z,76.90
2019-03-09T11:31:07.810Z,76.90
2019-03-09T11:33:37.792Z,77.50
2019-03-09T11:36:07.748Z,77.70
2019-03-09T11:38:37.726Z,77.60
2019-03-09T11:41:18.558Z,77.00
2019-03-09T11:43:40.311Z,77.60
2019-03-09T11:46:10.327Z,77.50
2019-03-09T11:48:40.321Z,78.00
2019-03-09T11:51:10.271Z,76.90
2019-03-09T11:53:40.243Z,77.40
2019-03-09T11:56:10.194Z,77.70
2019-03-09T11:58:40.180Z,77.50
2019-03-09T12:01:10.999Z,77.00
2019-03-09T12:03:40.977Z,76.00
2019-03-09T12:06:10.924Z,76.60
2019-03-09T12:08:40.900Z,75.50
2019-03-09T12:11:10.881Z,75.40
2019-03-09T12:13:40.828Z,74.10
2019-03-09T12:16:10.823Z,74.10
2019-03-09T12:18:40.777Z,74.10
2019-03-09T12:21:10.753Z,74.40
2019-03-09T12:23:40.704Z,73.00
2019-03-09T12:26:10.681Z,73.00
2019-03-09T12:28:40.631Z,73.30
2019-03-09T12:31:10.628Z,74.50
2019-03-09T12:33:40.584Z,74.30
2019-03-09T12:36:10.732Z,76.70
2019-03-09T12:38:40.858Z,79.20
2019-03-09T12:41:10.812Z,77.90
2019-03-09T12:43:40.764Z,76.70
2019-03-09T12:46:10.735Z,85.30
2019-03-09T12:48:41.452Z,86.00
2019-03-09T12:51:11.441Z,83.90
2019-03-09T12:53:41.391Z,84.50
2019-03-09T12:56:11.517Z,83.10
2019-03-09T12:58:41.660Z,82.70
2019-03-09T13:01:11.661Z,86.40
2019-03-09T13:03:41.612Z,86.60
2019-03-09T13:06:11.590Z,88.20
2019-03-09T13:08:41.609Z,89.00
2019-03-09T13:11:11.580Z,86.80
2019-03-09T13:13:41.530Z,86.80
2019-03-09T13:16:11.504Z,86.60
2019-03-09T13:18:41.457Z,83.40
2019-03-09T13:21:11.520Z,85.20
2019-03-09T13:23:42.613Z,84.20
2019-03-09T13:26:12.593Z,84.20
2019-03-09T13:28:42.552Z,81.70
2019-03-09T13:31:12.529Z,81.40
2019-03-09T13:33:42.481Z,79.70
2019-03-09T13:36:12.460Z,81.20
2019-03-09T13:38:42.521Z,79.30
2019-03-09T13:41:12.492Z,80.90
2019-03-09T13:43:42.444Z,78.80
2019-03-09T13:46:12.420Z,80.50
2019-03-09T13:48:43.288Z,79.70
2019-03-09T13:51:13.312Z,80.90
2019-03-09T13:53:43.264Z,79.80
2019-03-09T13:56:13.236Z,81.30
2019-03-09T13:58:43.189Z,80.90
2019-03-09T14:01:13.162Z,80.60
2019-03-09T14:03:43.113Z,81.10
2019-03-09T14:06:13.079Z,80.20
2019-03-09T14:08:43.036Z,87.30
2019-03-09T14:11:13.016Z,90.80
2019-03-09T14:13:42.963Z,91.50
2019-03-09T14:16:12.927Z,92.00
2019-03-09T14:18:42.872Z,93.90
2019-03-09T14:21:12.841Z,95.20
2019-03-09T14:23:42.787Z,94.60
2019-03-09T14:26:12.759Z,95.60
2019-03-09T14:28:42.692Z,96.20
2019-03-09T14:31:12.660Z,96.50
2019-03-09T14:33:42.600Z,95.90
2019-03-09T14:36:12.573Z,95.80
2019-03-09T14:38:42.639Z,96.10
2019-03-09T14:41:12.673Z,96.70
2019-03-09T14:43:42.667Z,95.90
2019-03-09T14:46:12.716Z,95.80
2019-03-09T14:48:42.700Z,95.50
2019-03-09T14:51:12.752Z,95.80
2019-03-09T14:53:42.696Z,94.70
2019-03-09T14:56:12.660Z,95.00
2019-03-09T14:58:42.599Z,94.60
2019-03-09T15:01:12.568Z,93.90
2019-03-09T15:03:42.516Z,93.50
2019-03-09T15:06:12.483Z,93.00
2019-03-09T15:08:42.429Z,92.80
2019-03-09T15:11:12.391Z,91.80
2019-03-09T15:13:42.333Z,90.70
2019-03-09T15:16:12.305Z,91.00
2019-03-09T15:18:42.300Z,91.00
2019-03-09T15:21:12.264Z,91.40
2019-03-09T15:23:42.210Z,92.20
2019-03-09T15:26:12.176Z,90.40
2019-03-09T15:28:42.129Z,91.10
2019-03-09T15:31:12.264Z,90.10
2019-03-09T15:33:42.220Z,90.50
2019-03-09T15:36:12.193Z,90.20
2019-03-09T15:38:42.148Z,90.40
2019-03-09T15:41:12.116Z,88.90
2019-03-09T15:43:42.072Z,88.50
2019-03-09T15:46:12.056Z,88.60
2019-03-09T15:48:42.008Z,88.80
2019-03-09T15:51:11.983Z,89.80
2019-03-09T15:53:41.941Z,89.30
2019-03-09T15:56:11.994Z,89.30
2019-03-09T15:58:41.981Z,90.10
2019-03-09T16:01:12.000Z,90.60
2019-03-09T16:03:42.060Z,91.20
2019-03-09T16:06:12.225Z,90.90
2019-03-09T16:08:42.252Z,90.90
2019-03-09T16:11:12.302Z,89.70
2019-03-09T16:13:42.283Z,86.90
2019-03-09T16:16:12.329Z,88.50
2019-03-09T16:18:43.248Z,87.10
2019-03-09T16:21:13.224Z,85.40
2019-03-09T16:23:43.243Z,86.00
2019-03-09T16:26:13.220Z,84.80
2019-03-09T16:28:43.173Z,85.10
2019-03-09T16:31:13.144Z,85.60
2019-03-09T16:33:43.097Z,84.30
2019-03-09T16:36:13.072Z,84.50
2019-03-09T16:38:43.029Z,84.70
2019-03-09T16:41:12.996Z,85.10
2019-03-09T16:43:42.953Z,83.70
2019-03-09T16:46:12.924Z,83.60
2019-03-09T16:48:42.872Z,84.40
2019-03-09T16:51:12.991Z,84.60
2019-03-09T16:53:42.925Z,83.80
2019-03-09T16:56:12.887Z,84.60
2019-03-09T16:58:42.828Z,84.30
2019-03-09T17:01:12.797Z,85.30
2019-03-09T17:03:42.744Z,84.30
2019-03-09T17:06:12.717Z,84.80
2019-03-09T17:08:42.656Z,85.60
2019-03-09T17:11:12.623Z,85.90
2019-03-09T17:13:42.568Z,85.30
2019-03-09T17:16:12.540Z,85.40
2019-03-09T17:18:42.492Z,84.60
2019-03-09T17:21:13.616Z,84.20
2019-03-09T17:23:43.561Z,83.50
2019-03-09T17:26:13.528Z,83.10
2019-03-09T17:28:43.467Z,84.10
2019-03-09T17:31:13.417Z,82.70
2019-03-09T17:33:43.388Z,84.20
2019-03-09T17:36:13.328Z,82.70
2019-03-09T17:38:43.297Z,82.30
2019-03-09T17:41:13.244Z,83.50
2019-03-09T17:43:43.218Z,83.50
2019-03-09T17:46:13.156Z,86.90
2019-03-09T17:48:43.129Z,87.50
2019-03-09T17:51:13.073Z,87.90
2019-03-09T17:53:43.041Z,86.80
2019-03-09T17:56:12.987Z,85.90
2019-03-09T17:58:42.943Z,84.30
2019-03-09T18:01:12.883Z,85.10
2019-03-09T18:03:42.855Z,85.60
2019-03-09T18:06:12.801Z,84.20
2019-03-09T18:08:43.842Z,83.70
2019-03-09T18:11:13.853Z,83.70
2019-03-09T18:13:43.816Z,83.90
2019-03-09T18:16:13.806Z,83.60
2019-03-09T18:18:43.736Z,84.30
2019-03-09T18:21:13.720Z,83.60
2019-03-09T18:23:43.656Z,83.50
2019-03-09T18:26:13.603Z,84.00
2019-03-09T18:28:43.580Z,84.70
2019-03-09T18:31:13.531Z,85.10
2019-03-09T18:33:43.508Z,86.90
2019-03-09T18:36:13.453Z,87.90
2019-03-09T18:38:43.421Z,90.30
2019-03-09T18:41:13.365Z,91.60
2019-03-09T18:43:43.332Z,93.10
2019-03-09T18:46:14.005Z,94.30
2019-03-09T18:48:44.440Z,95.90
2019-03-09T18:51:14.385Z,96.50
2019-03-09T18:53:44.352Z,96.10
2019-03-09T18:56:14.360Z,97.20
2019-03-09T18:58:44.332Z,97.80
2019-03-09T19:01:14.277Z,97.90
2019-03-09T19:03:44.249Z,98.10
2019-03-09T19:06:14.266Z,98.10
2019-03-09T19:08:44.223Z,98.70
2019-03-09T19:11:14.173Z,98.00
2019-03-09T19:13:44.140Z,98.90
2019-03-09T19:16:14.090Z,98.90
2019-03-09T19:18:44.056Z,99.10
2019-03-09T19:21:14.001Z,99.10
2019-03-09T19:23:43.963Z,99.20
2019-03-09T19:26:13.972Z,99.10
2019-03-09T19:28:44.020Z,99.10
2019-03-09T19:31:14.000Z,99.20
2019-03-09T19:33:43.959Z,99.30
2019-03-09T19:36:13.899Z,99.50
2019-03-09T19:38:43.863Z,99.30
2019-03-09T19:41:13.858Z,99.30
2019-03-09T19:43:43.805Z,99.20
2019-03-09T19:46:13.744Z,99.30
2019-03-09T19:48:43.708Z,99.20
2019-03-09T19:51:13.651Z,99.10
2019-03-09T19:53:43.621Z,98.90
2019-03-09T19:56:13.560Z,98.60
2019-03-09T19:58:43.532Z,97.90
2019-03-09T20:01:13.482Z,97.50
2019-03-09T20:03:43.448Z,96.90
2019-03-09T20:06:13.393Z,97.00
2019-03-09T20:08:43.357Z,96.20
2019-03-09T20:11:13.368Z,96.10
2019-03-09T20:13:43.331Z,95.20
2019-03-09T20:16:13.275Z,95.00
2019-03-09T20:18:43.240Z,94.20
2019-03-09T20:21:13.180Z,93.90
2019-03-09T20:23:43.149Z,93.80
2019-03-09T20:26:13.087Z,93.50
2019-03-09T20:28:44.020Z,93.30
2019-03-09T20:31:13.964Z,92.50
2019-03-09T20:33:44.013Z,93.00
2019-03-09T20:36:13.948Z,93.40
2019-03-09T20:38:43.920Z,93.10
2019-03-09T20:41:13.886Z,92.40
2019-03-09T20:43:43.844Z,92.30
2019-03-09T20:46:13.792Z,92.20
2019-03-09T20:48:43.756Z,92.10
2019-03-09T20:51:13.704Z,91.60
2019-03-09T20:53:43.808Z,90.30
2019-03-09T20:56:13.757Z,91.30
2019-03-09T20:58:43.741Z,90.60
2019-03-09T21:01:13.684Z,90.40
2019-03-09T21:03:43.660Z,90.00
2019-03-09T21:06:13.592Z,89.50
2019-03-09T21:08:43.564Z,88.90
2019-03-09T21:11:13.499Z,88.20
2019-03-09T21:13:43.474Z,88.00
2019-03-09T21:16:13.486Z,88.00
2019-03-09T21:18:43.464Z,87.50
2019-03-09T21:21:25.269Z,87.20
2019-03-09T21:23:55.230Z,86.50
2019-03-09T21:26:25.168Z,88.10
2019-03-09T21:28:55.131Z,88.00
2019-03-09T21:31:25.073Z,86.60
2019-03-09T21:33:55.039Z,86.00
2019-03-09T21:36:24.983Z,87.40
2019-03-09T21:38:54.948Z,89.20
2019-03-09T21:41:24.883Z,88.20
2019-03-09T21:43:54.856Z,85.90
2019-03-09T21:46:24.900Z,87.00
2019-03-09T21:48:54.870Z,87.20
2019-03-09T21:51:24.839Z,88.40
2019-03-09T21:53:56.436Z,89.20
2019-03-09T21:56:26.533Z,88.60
2019-03-09T21:58:56.492Z,88.20
2019-03-09T22:01:26.440Z,88.00
2019-03-09T22:03:56.408Z,88.10
2019-03-09T22:06:26.356Z,89.20
2019-03-09T22:08:56.315Z,89.50
2019-03-09T22:11:26.259Z,90.10
2019-03-09T22:13:56.231Z,90.60
2019-03-09T22:16:26.176Z,90.90
2019-03-09T22:18:56.148Z,90.90
2019-03-09T22:21:26.094Z,90.60
2019-03-09T22:23:56.062Z,91.10
2019-03-09T22:26:26.968Z,91.20
2019-03-09T22:28:56.938Z,90.90
2019-03-09T22:31:26.884Z,90.90
2019-03-09T22:33:56.855Z,90.70
2019-03-09T22:36:26.799Z,90.70
2019-03-09T22:38:56.803Z,90.60
2019-03-09T22:41:27.820Z,90.70
2019-03-09T22:43:57.795Z,90.30
2019-03-09T22:46:27.784Z,90.00
2019-03-09T22:48:57.747Z,90.00
2019-03-09T22:51:27.700Z,89.70
2019-03-09T22:53:57.664Z,90.50
2019-03-09T22:56:27.610Z,90.20
2019-03-09T22:58:57.576Z,90.20
2019-03-09T23:01:27.689Z,90.40
2019-03-09T23:03:57.840Z,90.70
2019-03-09T23:06:27.759Z,90.70
2019-03-09T23:08:58.896Z,91.30
2019-03-09T23:11:29.112Z,91.20
2019-03-09T23:13:59.072Z,91.30
2019-03-09T23:16:29.019Z,91.20
2019-03-09T23:18:59.068Z,91.30
2019-03-09T23:21:29.297Z,91.40
2019-03-09T23:23:59.303Z,91.80
2019-03-09T23:26:29.244Z,91.40
2019-03-09T23:28:59.277Z,91.60
2019-03-09T23:31:29.265Z,91.40
2019-03-09T23:33:59.199Z,91.40
2019-03-09T23:36:29.176Z,91.30
2019-03-09T23:38:59.115Z,91.00
2019-03-09T23:41:29.160Z,91.10
2019-03-09T23:43:59.102Z,91.00
2019-03-09T23:46:30.141Z,90.60
2019-03-09T23:49:00.084Z,90.50
2019-03-09T23:51:30.052Z,90.30
2019-03-09T23:53:59.996Z,90.10
2019-03-09T23:56:30.032Z,90.00
2019-03-09T23:59:00.044Z,89.70
